KIAB

Mc Connell AFB Airport

Wichita, Kansas, USA
METAR KIAB 160956Z AUTO 21011KT 10SM CLR 02/M05 A2990 RMK AO2 SLP133 T00161049
Observed Flight Rules
Dec-16 @ 09:56 UTC (an hour ago) Visual Flight Rules
Wind Visibility Clouds
210° at 11 knots 10 miles
  • Clear skies
Temperatures Readings
Current 2°C / 36°F
Dewpoint -5°C / 23°F
Humidity 60%
Altimeter 29.9" Hg
Pressure 1013.3 hPa
Elevation 418
METAR KIAB 160956Z AUTO 21011KT 10SM CLR 02/M05 A2990 RMK AO2 SLP133 T00161049
Observed Flight Rules
Dec-16 @ 09:56 UTC
(an hour ago)
VFR
Wind Visibility
210° at 11 knots 10 miles
Clouds
  • Clear skies
Temperature Dewpoint
2°C / 36°F -5°C / 23°F
Humidity Altimeter Pressure
60% 29.9" Hg 1013.3 hPa